Terminal Aerodrome Forecast
Issued by NWS Charleston, WV

Current Version | Previous Version | Graphics & Text | Print | Product List | Glossary On
Versions: 1 2 3 4 5 6 7 8 9 10 11 12 13 14 15 16 17 18 19 20 21 22 23 24 25 26
000
FTUS41 KRLX 181700
TAFCRW
TAF
KCRW 181732Z 1818/1918 VRB03KT P6SM SCT050
     FM190500 00000KT 4SM BR FEW050
     FM190600 00000KT 2SM BR FEW050
     FM190700 00000KT 1/2SM FG VV001
     FM191300 00000KT 1SM BR SCT001 SCT040
     FM191400 00000KT P6SM SCT040=

USA.gov is the U.S. government's official web portal to all federal, state and local government web resources and services.